Time,TemperatureF,DewpointF,PressureIn,WindDirection,WindDirectionDegrees,WindSpeedMPH,WindSpeedGustMPH,Humidity,HourlyPrecipIn,Conditions,Clouds,dailyrainin,SoftwareType,DateUTC
2013-04-12 00:03:00,35.3,35.0,29.65,East,90,3.0,12.0,97,0.01,,,0.24,weatherlink.com 1.10,2013-04-12 05:03:00,
2013-04-12 00:18:00,35.3,35.0,29.65,East,79,3.0,11.0,97,0.01,,,0.24,weatherlink.com 1.10,2013-04-12 05:18:00,
2013-04-12 00:33:00,35.3,35.0,29.65,ESE,116,7.0,11.0,97,0.02,,,0.25,weatherlink.com 1.10,2013-04-12 05:33:00,
2013-04-12 00:48:00,35.3,35.0,29.64,ENE,78,9.0,11.0,97,0.01,,,0.25,weatherlink.com 1.10,2013-04-12 05:48:00,
2013-04-12 01:03:00,35.2,35.0,29.64,NE,48,5.0,10.0,97,0.02,,,0.26,weatherlink.com 1.10,2013-04-12 06:03:00,
2013-04-12 01:18:00,35.2,35.0,29.63,ENE,76,3.0,9.0,97,0.02,,,0.26,weatherlink.com 1.10,2013-04-12 06:18:00,
2013-04-12 01:33:00,35.2,35.0,29.64,ESE,117,3.0,10.0,97,0.01,,,0.26,weatherlink.com 1.10,2013-04-12 06:33:00,
2013-04-12 01:48:00,35.1,34.0,29.63,ESE,110,2.0,8.0,97,0.02,,,0.27,weatherlink.com 1.10,2013-04-12 06:48:00,
2013-04-12 02:03:00,35.1,34.0,29.62,ENE,57,12.0,13.0,97,0.01,,,0.27,weatherlink.com 1.10,2013-04-12 07:03:00,
2013-04-12 02:18:00,35.1,34.0,29.62,East,86,3.0,9.0,97,0.02,,,0.28,weatherlink.com 1.10,2013-04-12 07:18:00,
2013-04-12 02:33:00,35.1,34.0,29.61,ESE,119,5.0,8.0,97,0.02,,,0.28,weatherlink.com 1.10,2013-04-12 07:33:00,
2013-04-12 02:48:00,35.0,34.0,29.61,ENE,74,5.0,8.0,97,0.01,,,0.28,weatherlink.com 1.10,2013-04-12 07:48:00,
2013-04-12 03:03:00,35.0,34.0,29.61,ENE,75,2.0,7.0,97,0.02,,,0.29,weatherlink.com 1.10,2013-04-12 08:03:00,
2013-04-12 03:18:00,34.9,34.0,29.61,East,99,2.0,7.0,97,0.01,,,0.29,weatherlink.com 1.10,2013-04-12 08:18:00,
2013-04-12 03:33:00,34.8,34.0,29.60,East,79,1.0,7.0,97,0.02,,,0.30,weatherlink.com 1.10,2013-04-12 08:33:00,
2013-04-12 03:48:00,34.7,34.0,29.61,East,82,1.0,5.0,97,0.02,,,0.30,weatherlink.com 1.10,2013-04-12 08:48:00,
2013-04-12 04:03:00,34.6,34.0,29.60,East,94,1.0,5.0,97,0.01,,,0.00,weatherlink.com 1.10,2013-04-12 09:03:00,
2013-04-12 04:18:00,34.6,34.0,29.60,East,94,2.0,3.0,97,0.02,,,0.01,weatherlink.com 1.10,2013-04-12 09:18:00,
2013-04-12 04:33:00,34.6,34.0,29.60,East,94,0.0,2.0,97,0.01,,,0.01,weatherlink.com 1.10,2013-04-12 09:33:00,
2013-04-12 04:48:00,34.7,34.0,29.60,East,94,0.0,3.0,97,0.01,,,0.01,weatherlink.com 1.10,2013-04-12 09:48:00,
2013-04-12 05:03:00,34.7,34.0,29.59,East,94,1.0,1.0,97,0.02,,,0.02,weatherlink.com 1.10,2013-04-12 10:03:00,
2013-04-12 05:18:00,34.7,34.0,29.58,East,94,2.0,3.0,97,0.01,,,0.02,weatherlink.com 1.10,2013-04-12 10:18:00,
2013-04-12 05:33:00,34.7,34.0,29.59,East,94,0.0,1.0,97,0.01,,,0.02,weatherlink.com 1.10,2013-04-12 10:33:00,
2013-04-12 05:48:00,34.7,34.0,29.59,East,94,0.0,0.0,97,0.02,,,0.03,weatherlink.com 1.10,2013-04-12 10:48:00,
2013-04-12 06:03:00,34.7,34.0,29.59,East,94,0.0,0.0,97,0.01,,,0.03,weatherlink.com 1.10,2013-04-12 11:03:00,
2013-04-12 06:18:00,34.6,34.0,29.59,East,94,0.0,0.0,97,0.01,,,0.03,weatherlink.com 1.10,2013-04-12 11:18:00,
2013-04-12 06:33:00,-999.0,-99.9,29.59,North,-999,-999.0,-999.0,-999,0.01,,,0.03,weatherlink.com 1.10,2013-04-12 11:33:00,
2013-04-12 07:04:00,-999.0,-99.9,29.59,North,-999,-999.0,-999.0,-999,0.00,,,0.03,weatherlink.com 1.10,2013-04-12 12:04:00,
2013-04-12 07:19:00,-999.0,-99.9,29.59,North,-999,-999.0,-999.0,-999,0.00,,,0.03,weatherlink.com 1.10,2013-04-12 12:19:00,
2013-04-12 07:34:00,-999.0,-99.9,29.59,North,-999,-999.0,-999.0,-999,0.00,,,0.03,weatherlink.com 1.10,2013-04-12 12:34:00,
2013-04-12 07:49:00,35.5,35.0,29.59,West,272,4.0,6.0,97,0.01,,,0.04,weatherlink.com 1.10,2013-04-12 12:49:00,
2013-04-12 08:04:00,35.6,35.0,29.59,WSW,246,4.0,7.0,97,0.01,,,0.04,weatherlink.com 1.10,2013-04-12 13:04:00,
2013-04-12 08:19:00,35.4,35.0,29.60,WSW,255,7.0,8.0,97,0.01,,,0.04,weatherlink.com 1.10,2013-04-12 13:19:00,
2013-04-12 08:34:00,35.5,35.0,29.60,WSW,246,2.0,5.0,97,0.01,,,0.04,weatherlink.com 1.10,2013-04-12 13:34:00,
2013-04-12 08:49:00,36.0,35.0,29.60,SW,226,3.0,7.0,97,0.00,,,0.04,weatherlink.com 1.10,2013-04-12 13:49:00,
2013-04-12 09:04:00,36.3,36.0,29.60,West,262,4.0,10.0,97,0.00,,,0.04,weatherlink.com 1.10,2013-04-12 14:04:00,
2013-04-12 09:19:00,36.8,36.0,29.60,West,273,4.0,7.0,97,0.00,,,0.04,weatherlink.com 1.10,2013-04-12 14:19:00,
2013-04-12 09:34:00,37.0,36.0,29.61,WSW,244,2.0,8.0,97,0.00,,,0.04,weatherlink.com 1.10,2013-04-12 14:34:00,
2013-04-12 09:49:00,37.2,36.0,29.60,WNW,297,6.0,11.0,96,0.00,,,0.04,weatherlink.com 1.10,2013-04-12 14:49:00,
2013-04-12 10:04:00,37.2,36.0,29.61,WSW,256,2.0,10.0,96,0.00,,,0.04,weatherlink.com 1.10,2013-04-12 15:04:00,
2013-04-12 10:19:00,37.3,36.0,29.62,West,267,5.0,9.0,96,0.00,,,0.04,weatherlink.com 1.10,2013-04-12 15:19:00,
2013-04-12 10:34:00,37.5,37.0,29.62,West,260,5.0,10.0,96,0.00,,,0.04,weatherlink.com 1.10,2013-04-12 15:34:00,
2013-04-12 10:49:00,37.9,37.0,29.63,WSW,250,5.0,9.0,96,0.00,,,0.04,weatherlink.com 1.10,2013-04-12 15:49:00,
2013-04-12 11:05:00,38.1,37.0,29.63,WNW,300,4.0,11.0,94,0.00,,,0.04,weatherlink.com 1.10,2013-04-12 16:05:00,
2013-04-12 11:19:00,38.7,37.0,29.63,WSW,252,5.0,12.0,94,0.01,,,0.05,weatherlink.com 1.10,2013-04-12 16:19:00,
2013-04-12 11:34:00,38.7,37.0,29.64,West,263,5.0,12.0,92,0.01,,,0.05,weatherlink.com 1.10,2013-04-12 16:34:00,
2013-04-12 11:49:00,39.1,37.0,29.64,West,266,2.0,13.0,92,0.01,,,0.05,weatherlink.com 1.10,2013-04-12 16:49:00,
2013-04-12 12:04:00,39.2,37.0,29.64,WNW,292,4.0,10.0,92,0.01,,,0.05,weatherlink.com 1.10,2013-04-12 17:04:00,
2013-04-12 12:19:00,39.2,37.0,29.64,West,271,4.0,9.0,91,0.00,,,0.05,weatherlink.com 1.10,2013-04-12 17:19:00,
2013-04-12 12:34:00,40.3,38.0,29.65,WNW,292,3.0,13.0,91,0.00,,,0.05,weatherlink.com 1.10,2013-04-12 17:34:00,
2013-04-12 12:49:00,40.3,37.0,29.65,West,267,5.0,9.0,89,0.00,,,0.05,weatherlink.com 1.10,2013-04-12 17:49:00,
2013-04-12 13:05:00,40.3,37.0,29.66,West,266,6.0,9.0,88,0.00,,,0.05,weatherlink.com 1.10,2013-04-12 18:05:00,
2013-04-12 14:35:00,39.5,36.0,29.69,West,274,4.0,10.0,86,0.00,,,0.05,weatherlink.com 1.10,2013-04-12 19:35:00,
2013-04-12 17:21:00,37.6,36.0,29.76,West,281,7.0,11.0,92,0.00,,,0.05,weatherlink.com 1.10,2013-04-12 22:21:00,
2013-04-12 17:51:00,37.1,35.0,29.77,WNW,286,3.0,7.0,93,0.00,,,0.05,weatherlink.com 1.10,2013-04-12 22:51:00,
2013-04-12 18:06:00,37.2,35.0,29.77,West,269,3.0,7.0,93,0.00,,,0.05,weatherlink.com 1.10,2013-04-12 23:06:00,
2013-04-12 18:36:00,36.1,34.0,29.79,NW,323,5.0,15.0,93,0.00,,,0.05,weatherlink.com 1.10,2013-04-12 23:36:00,
2013-04-12 18:51:00,35.7,34.0,29.79,West,275,2.0,10.0,93,0.00,,,0.05,weatherlink.com 1.10,2013-04-12 23:51:00,
2013-04-12 19:52:00,35.5,33.0,29.80,WNW,284,3.0,10.0,91,0.01,,,0.06,weatherlink.com 1.10,2013-04-13 00:52:00,
2013-04-12 21:21:00,34.6,31.0,29.84,WSW,257,6.0,11.0,87,0.00,,,0.06,weatherlink.com 1.10,2013-04-13 02:21:00,